createdAt,value
2023-04-02T00:01:01.967Z,47.50
2023-04-02T00:03:08.500Z,47.50
2023-04-02T00:05:31.355Z,47.50
2023-04-02T00:07:33.551Z,47.40
2023-04-02T00:09:38.000Z,47.40
2023-04-02T00:11:45.503Z,47.50
2023-04-02T00:13:47.118Z,47.50
2023-04-02T00:15:51.883Z,47.40
2023-04-02T00:17:53.984Z,47.50
2023-04-02T00:20:04.139Z,47.50
2023-04-02T00:22:20.293Z,47.40
2023-04-02T00:24:22.546Z,47.50
2023-04-02T00:26:28.693Z,47.40
2023-04-02T00:28:30.657Z,47.50
2023-04-02T00:30:32.311Z,47.40
2023-04-02T00:32:36.341Z,47.50
2023-04-02T00:34:38.331Z,47.50
2023-04-02T00:36:41.818Z,47.40
2023-04-02T00:38:46.783Z,47.40
2023-04-02T00:40:51.088Z,47.40
2023-04-02T00:42:55.739Z,47.40
2023-04-02T00:44:58.796Z,47.50
2023-04-02T00:47:09.127Z,47.40
2023-04-02T00:49:29.766Z,48.00
2023-04-02T00:51:36.912Z,47.40
2023-04-02T00:53:40.589Z,47.40
2023-04-02T00:55:43.744Z,47.30
2023-04-02T00:57:46.440Z,47.30
2023-04-02T01:00:12.014Z,47.30
2023-04-02T01:02:17.457Z,47.30
2023-04-02T01:04:34.275Z,47.30
2023-04-02T01:06:38.546Z,47.30
2023-04-02T01:08:43.133Z,47.30
2023-04-02T01:10:56.985Z,47.30
2023-04-02T01:13:27.715Z,47.30
2023-04-02T01:15:40.587Z,47.30
2023-04-02T01:18:00.869Z,47.30
2023-04-02T01:20:31.834Z,47.30
2023-04-02T01:23:17.341Z,47.20
2023-04-02T01:25:49.626Z,47.20
2023-04-02T01:28:00.633Z,47.30
2023-04-02T01:30:05.171Z,47.20
2023-04-02T01:32:12.921Z,47.20
2023-04-02T01:34:18.255Z,47.20
2023-04-02T01:37:00.850Z,47.20
2023-04-02T01:39:35.062Z,47.20
2023-04-02T01:41:58.119Z,47.20
2023-04-02T01:44:14.271Z,47.20
2023-04-02T01:46:31.932Z,47.20
2023-04-02T01:48:33.659Z,47.20
2023-04-02T01:50:38.584Z,47.20
2023-04-02T01:52:43.118Z,47.30
2023-04-02T01:54:47.204Z,47.20
2023-04-02T01:56:49.837Z,47.20
2023-04-02T01:58:51.604Z,47.20
2023-04-02T02:01:03.800Z,47.20
2023-04-02T02:03:06.332Z,47.20
2023-04-02T02:05:21.097Z,47.20
2023-04-02T02:07:24.084Z,47.20
2023-04-02T02:09:29.955Z,47.20
2023-04-02T02:11:33.366Z,47.20
2023-04-02T02:13:35.074Z,47.20
2023-04-02T02:15:37.074Z,47.10
2023-04-02T02:17:39.054Z,47.10
2023-04-02T02:19:47.203Z,47.10
2023-04-02T02:21:54.804Z,47.10
2023-04-02T02:23:57.377Z,47.10
2023-04-02T02:25:59.110Z,47.10
2023-04-02T02:28:05.845Z,47.10
2023-04-02T02:30:16.676Z,47.10
2023-04-02T02:32:22.253Z,47.00
2023-04-02T02:34:32.801Z,47.00
2023-04-02T02:36:58.682Z,47.00
2023-04-02T02:39:38.511Z,47.00
2023-04-02T02:41:45.840Z,47.00
2023-04-02T02:44:17.103Z,47.00
2023-04-02T02:46:22.185Z,47.00
2023-04-02T02:48:33.203Z,47.00
2023-04-02T02:50:35.358Z,47.00
2023-04-02T02:52:39.162Z,47.00
2023-04-02T02:54:56.591Z,47.00
2023-04-02T02:57:03.399Z,47.10
2023-04-02T02:59:08.431Z,47.00
2023-04-02T03:01:10.502Z,47.00
2023-04-02T03:03:18.909Z,47.00
2023-04-02T03:05:26.203Z,47.00
2023-04-02T03:07:30.265Z,47.00
2023-04-02T03:10:12.543Z,47.00
2023-04-02T03:12:32.778Z,46.90
2023-04-02T03:14:46.421Z,46.90
2023-04-02T03:16:52.719Z,46.90
2023-04-02T03:19:16.461Z,46.80
2023-04-02T03:21:48.696Z,46.90
2023-04-02T03:24:06.074Z,46.90
2023-04-02T03:26:46.510Z,46.90
2023-04-02T03:29:03.750Z,46.80
2023-04-02T03:31:27.617Z,46.80
2023-04-02T03:33:39.457Z,46.90
2023-04-02T03:35:54.460Z,46.80
2023-04-02T03:38:03.494Z,46.80
2023-04-02T03:40:09.672Z,46.80
2023-04-02T03:42:17.742Z,46.80
2023-04-02T03:44:35.147Z,46.80
2023-04-02T03:46:51.851Z,47.50
2023-04-02T03:48:58.364Z,46.80
2023-04-02T03:51:07.086Z,46.80
2023-04-02T03:53:09.215Z,46.80
2023-04-02T03:55:21.933Z,46.70
2023-04-02T03:57:43.472Z,46.70
2023-04-02T03:59:58.154Z,46.80
2023-04-02T04:02:38.772Z,46.70
2023-04-02T04:04:42.878Z,46.70
2023-04-02T04:06:49.273Z,46.80
2023-04-02T04:08:55.826Z,46.80
2023-04-02T04:11:01.788Z,46.90
2023-04-02T04:13:12.361Z,47.00
2023-04-02T04:15:42.377Z,47.00
2023-04-02T04:18:21.563Z,47.60
2023-04-02T04:20:45.925Z,46.90
2023-04-02T04:22:49.874Z,46.90
2023-04-02T04:24:51.603Z,46.90
2023-04-02T04:27:23.706Z,46.70
2023-04-02T04:29:46.567Z,46.70
2023-04-02T04:31:50.707Z,46.60
2023-04-02T04:34:03.040Z,46.50
2023-04-02T04:36:06.145Z,46.60
2023-04-02T04:38:18.602Z,46.50
2023-04-02T04:40:35.753Z,46.50
2023-04-02T04:42:40.606Z,46.50
2023-04-02T04:44:55.303Z,46.50
2023-04-02T04:47:10.260Z,46.50
2023-04-02T04:49:19.626Z,46.40
2023-04-02T04:51:37.675Z,46.40
2023-04-02T04:53:48.061Z,46.40
2023-04-02T04:55:53.426Z,46.60
2023-04-02T04:58:00.630Z,46.80
2023-04-02T05:00:13.733Z,46.60
2023-04-02T05:02:24.679Z,46.60
2023-04-02T05:04:31.508Z,46.60
2023-04-02T05:06:39.373Z,46.60
2023-04-02T05:08:47.142Z,46.60
2023-04-02T05:11:07.774Z,46.70
2023-04-02T05:13:18.762Z,46.60
2023-04-02T05:15:30.344Z,46.70
2023-04-02T05:17:43.861Z,46.50
2023-04-02T05:20:10.823Z,46.40
2023-04-02T05:22:31.157Z,46.60
2023-04-02T05:24:50.756Z,46.60
2023-04-02T05:26:56.955Z,46.50
2023-04-02T05:29:17.009Z,46.60
2023-04-02T05:31:26.027Z,46.60
2023-04-02T05:33:30.732Z,47.20
2023-04-02T05:35:35.376Z,46.50
2023-04-02T05:37:39.482Z,46.60
2023-04-02T05:39:45.595Z,46.60
2023-04-02T05:41:47.604Z,46.60
2023-04-02T05:43:56.481Z,46.50
2023-04-02T05:46:02.842Z,46.40
2023-04-02T05:48:18.838Z,46.40
2023-04-02T05:50:37.710Z,46.40
2023-04-02T05:53:07.724Z,46.30
2023-04-02T05:55:12.400Z,46.30
2023-04-02T05:57:23.180Z,46.50
2023-04-02T05:59:37.883Z,46.50
2023-04-02T06:01:51.457Z,46.40
2023-04-02T06:04:07.082Z,46.30
2023-04-02T06:06:19.307Z,46.40
2023-04-02T06:08:35.187Z,46.40
2023-04-02T06:10:51.372Z,46.30
2023-04-02T06:13:03.579Z,46.30
2023-04-02T06:15:06.772Z,46.30
2023-04-02T06:17:14.295Z,46.30
2023-04-02T06:19:25.624Z,46.30
2023-04-02T06:21:27.306Z,46.20
2023-04-02T06:23:54.824Z,46.10
2023-04-02T06:26:14.992Z,46.10
2023-04-02T06:28:41.475Z,46.10
2023-04-02T06:30:44.073Z,46.20
2023-04-02T06:32:46.060Z,46.10
2023-04-02T06:34:47.759Z,46.20
2023-04-02T06:36:51.336Z,46.20
2023-04-02T06:38:58.130Z,46.20
2023-04-02T06:41:05.061Z,46.30
2023-04-02T06:43:17.215Z,46.30
2023-04-02T06:45:39.901Z,46.90
2023-04-02T06:47:44.262Z,46.30
2023-04-02T06:49:58.294Z,46.30
2023-04-02T06:52:03.599Z,46.30
2023-04-02T06:54:05.981Z,46.40
2023-04-02T06:56:37.692Z,46.50
2023-04-02T06:58:39.339Z,46.40
2023-04-02T07:00:42.146Z,46.30
2023-04-02T07:02:44.049Z,46.30
2023-04-02T07:04:46.036Z,46.30
2023-04-02T07:06:48.220Z,46.40
2023-04-02T07:08:49.914Z,46.40
2023-04-02T07:10:52.160Z,46.40
2023-04-02T07:12:53.764Z,46.30
2023-04-02T07:14:55.436Z,46.30
2023-04-02T07:16:57.105Z,46.30
2023-04-02T07:18:59.671Z,47.10
2023-04-02T07:21:01.322Z,45.60
2023-04-02T07:23:03.695Z,45.90
2023-04-02T07:25:05.699Z,46.30
2023-04-02T07:27:07.289Z,46.30
2023-04-02T07:29:13.411Z,46.30
2023-04-02T07:31:20.453Z,46.30
2023-04-02T07:33:28.381Z,46.20
2023-04-02T07:35:29.986Z,46.20
2023-04-02T07:37:32.027Z,46.20
2023-04-02T07:39:36.200Z,46.10
2023-04-02T07:41:57.270Z,46.80
2023-04-02T07:43:58.926Z,46.30
2023-04-02T07:46:00.790Z,46.60
2023-04-02T07:48:11.340Z,47.00
2023-04-02T07:50:13.428Z,47.50
2023-04-02T07:52:15.629Z,48.40
2023-04-02T07:54:17.250Z,47.70
2023-04-02T07:56:20.186Z,47.80
2023-04-02T07:58:22.061Z,48.10
2023-04-02T08:00:24.850Z,48.10
2023-04-02T08:02:26.485Z,48.10
2023-04-02T08:04:28.186Z,48.10
2023-04-02T08:06:30.472Z,48.10
2023-04-02T08:08:32.132Z,48.10
2023-04-02T08:10:33.745Z,48.10
2023-04-02T08:12:35.997Z,48.10
2023-04-02T08:14:37.647Z,48.10
2023-04-02T08:16:50.906Z,48.00
2023-04-02T08:18:52.676Z,47.90
2023-04-02T08:20:54.565Z,47.80
2023-04-02T08:22:56.345Z,47.80
2023-04-02T08:24:58.154Z,47.80
2023-04-02T08:26:59.821Z,47.70
2023-04-02T08:29:01.608Z,47.70
2023-04-02T08:31:04.722Z,47.70
2023-04-02T08:33:06.773Z,47.70
2023-04-02T08:35:14.580Z,47.60
2023-04-02T08:37:16.282Z,47.60
2023-04-02T08:39:17.934Z,47.60
2023-04-02T08:41:27.438Z,47.60
2023-04-02T08:43:54.004Z,47.50
2023-04-02T08:46:01.766Z,47.40
2023-04-02T08:48:05.435Z,47.30
2023-04-02T08:50:28.694Z,47.30
2023-04-02T08:52:37.243Z,47.30
2023-04-02T08:54:38.896Z,47.20
2023-04-02T08:56:47.027Z,47.20
2023-04-02T08:58:51.925Z,47.20
2023-04-02T09:00:57.713Z,47.10
2023-04-02T09:03:06.710Z,47.10
2023-04-02T09:05:22.016Z,47.10
2023-04-02T09:07:24.069Z,47.00
2023-04-02T09:09:27.165Z,47.00
2023-04-02T09:11:38.143Z,47.00
2023-04-02T09:13:46.645Z,47.00
2023-04-02T09:15:50.092Z,47.00
2023-04-02T09:18:13.190Z,47.00
2023-04-02T09:20:18.835Z,46.90
2023-04-02T09:22:24.253Z,46.90
2023-04-02T09:24:26.083Z,46.90
2023-04-02T09:26:30.740Z,46.90
2023-04-02T09:28:32.400Z,46.90
2023-04-02T09:30:57.329Z,46.90
2023-04-02T09:33:07.524Z,46.90
2023-04-02T09:35:25.360Z,46.90
2023-04-02T09:37:39.905Z,46.90
2023-04-02T09:39:41.542Z,46.90
2023-04-02T09:41:44.916Z,46.80
2023-04-02T09:43:48.009Z,46.90
2023-04-02T09:46:04.875Z,46.90
2023-04-02T09:48:40.765Z,46.90
2023-04-02T09:50:42.437Z,46.90
2023-04-02T09:52:44.111Z,46.80
2023-04-02T09:54:47.591Z,46.90
2023-04-02T09:57:03.944Z,46.90
2023-04-02T09:59:15.037Z,46.80
2023-04-02T10:01:28.134Z,46.80
2023-04-02T10:03:35.764Z,46.80
2023-04-02T10:05:41.117Z,46.80
2023-04-02T10:07:45.917Z,46.70
2023-04-02T10:10:01.643Z,46.70
2023-04-02T10:12:06.967Z,46.70
2023-04-02T10:14:20.483Z,46.70
2023-04-02T10:16:36.863Z,46.70
2023-04-02T10:18:44.835Z,46.60
2023-04-02T10:20:51.550Z,46.60
2023-04-02T10:22:53.430Z,46.60
2023-04-02T10:24:55.324Z,46.50
2023-04-02T10:27:17.976Z,46.50
2023-04-02T10:29:34.777Z,46.50
2023-04-02T10:32:01.501Z,46.50
2023-04-02T10:34:12.477Z,46.50
2023-04-02T10:36:24.398Z,46.50
2023-04-02T10:38:28.823Z,46.50
2023-04-02T10:40:42.498Z,46.40
2023-04-02T10:43:34.277Z,46.50
2023-04-02T10:45:59.162Z,46.40
2023-04-02T10:48:25.388Z,46.40
2023-04-02T10:50:48.194Z,46.40
2023-04-02T10:53:02.347Z,46.40
2023-04-02T10:55:18.000Z,46.40
2023-04-02T10:57:28.852Z,46.40
2023-04-02T10:59:35.463Z,46.40
2023-04-02T11:01:40.905Z,46.70
2023-04-02T11:03:57.824Z,46.40
2023-04-02T11:06:05.826Z,46.50
2023-04-02T11:08:18.151Z,46.40
2023-04-02T11:10:20.954Z,46.40
2023-04-02T11:12:41.632Z,46.40
2023-04-02T11:14:43.796Z,47.10
2023-04-02T11:16:48.155Z,46.50
2023-04-02T11:19:09.040Z,46.60
2023-04-02T11:21:57.338Z,46.50
2023-04-02T11:24:03.698Z,46.60
2023-04-02T11:26:33.711Z,46.50
2023-04-02T11:28:35.433Z,46.50
2023-04-02T11:30:37.157Z,46.50
2023-04-02T11:32:51.957Z,46.50
2023-04-02T11:35:06.330Z,46.50
2023-04-02T11:37:29.024Z,46.40
2023-04-02T11:39:53.911Z,46.40
2023-04-02T11:42:03.145Z,46.40
2023-04-02T11:44:05.402Z,46.40
2023-04-02T11:46:15.953Z,46.40
2023-04-02T11:48:17.556Z,46.40
2023-04-02T11:50:31.205Z,46.40
2023-04-02T11:52:35.459Z,46.40
2023-04-02T11:54:38.540Z,46.40
2023-04-02T11:56:55.162Z,46.40
2023-04-02T11:59:09.103Z,46.40
2023-04-02T12:01:31.985Z,46.40
2023-04-02T12:04:05.969Z,46.40
2023-04-02T12:06:13.256Z,46.40
2023-04-02T12:08:24.300Z,46.40
2023-04-02T12:10:34.415Z,46.40
2023-04-02T12:12:38.885Z,46.40
2023-04-02T12:14:46.483Z,46.40
2023-04-02T12:16:48.292Z,46.40
2023-04-02T12:18:54.353Z,46.40
2023-04-02T12:20:57.670Z,46.40
2023-04-02T12:22:59.566Z,46.40
2023-04-02T12:25:06.363Z,46.40
2023-04-02T12:27:29.442Z,46.60
2023-04-02T12:29:31.203Z,46.60
2023-04-02T12:31:33.632Z,46.60
2023-04-02T12:33:37.993Z,46.60
2023-04-02T12:35:42.349Z,46.60
2023-04-02T12:37:44.019Z,46.60
2023-04-02T12:39:53.492Z,46.50
2023-04-02T12:41:55.943Z,46.50
2023-04-02T12:44:15.431Z,46.50
2023-04-02T12:46:17.228Z,46.40
2023-04-02T12:48:19.172Z,46.40
2023-04-02T12:50:22.231Z,46.40
2023-04-02T12:52:28.784Z,46.50
2023-04-02T12:54:36.386Z,46.40
2023-04-02T12:56:38.377Z,46.50
2023-04-02T12:58:42.897Z,46.50
2023-04-02T13:00:44.544Z,46.60
2023-04-02T13:02:49.124Z,46.40
2023-04-02T13:04:53.406Z,46.40
2023-04-02T13:06:56.158Z,46.30
2023-04-02T13:08:58.468Z,46.20
2023-04-02T13:11:04.866Z,46.10
2023-04-02T13:13:06.548Z,46.10
2023-04-02T13:15:34.372Z,46.10
2023-04-02T13:17:50.057Z,46.10
2023-04-02T13:19:51.745Z,46.10
2023-04-02T13:21:54.916Z,46.00
2023-04-02T13:23:56.542Z,45.90
2023-04-02T13:26:10.485Z,46.00
2023-04-02T13:28:12.133Z,45.90
2023-04-02T13:30:22.466Z,45.80
2023-04-02T13:32:25.977Z,45.80
2023-04-02T13:34:28.511Z,45.80
2023-04-02T13:36:30.645Z,45.70
2023-04-02T13:38:32.266Z,45.70
2023-04-02T13:40:35.415Z,45.80
2023-04-02T13:42:37.369Z,45.70
2023-04-02T13:44:39.058Z,45.80
2023-04-02T13:46:40.725Z,45.70
2023-04-02T13:48:42.355Z,45.70
2023-04-02T13:50:45.949Z,45.70
2023-04-02T13:52:50.525Z,45.80
2023-04-02T13:54:58.796Z,45.80
2023-04-02T13:57:01.226Z,45.80
2023-04-02T13:59:02.894Z,45.70
2023-04-02T14:01:04.703Z,45.70
2023-04-02T14:03:13.858Z,45.70
2023-04-02T14:05:22.436Z,45.70
2023-04-02T14:07:39.270Z,45.70
2023-04-02T14:09:59.383Z,45.70
2023-04-02T14:12:53.407Z,45.80
2023-04-02T14:15:22.781Z,45.70
2023-04-02T14:17:47.392Z,45.70
2023-04-02T14:20:09.024Z,45.70
2023-04-02T14:22:41.625Z,45.70
2023-04-02T14:25:06.050Z,45.70
2023-04-02T14:27:29.235Z,45.70
2023-04-02T14:29:46.157Z,45.80
2023-04-02T14:32:08.121Z,45.80
2023-04-02T14:34:12.459Z,45.80
2023-04-02T14:36:22.685Z,46.50
2023-04-02T14:38:40.433Z,45.80
2023-04-02T14:40:50.209Z,45.70
2023-04-02T14:43:07.164Z,45.60
2023-04-02T14:45:18.660Z,45.50
2023-04-02T14:47:46.400Z,45.40
2023-04-02T14:49:54.588Z,45.30
2023-04-02T14:52:04.686Z,45.20
2023-04-02T14:54:21.647Z,45.20
2023-04-02T14:56:24.189Z,45.10
2023-04-02T14:58:33.058Z,45.20
2023-04-02T15:00:43.121Z,45.00
2023-04-02T15:02:50.804Z,45.10
2023-04-02T15:05:17.691Z,44.10
2023-04-02T15:07:24.002Z,43.40
2023-04-02T15:09:33.869Z,43.90
2023-04-02T15:11:56.101Z,44.20
2023-04-02T15:14:05.096Z,44.30
2023-04-02T15:16:23.471Z,44.60
2023-04-02T15:18:25.453Z,44.70
2023-04-02T15:20:36.937Z,44.70
2023-04-02T15:22:47.643Z,44.60
2023-04-02T15:25:15.405Z,44.60
2023-04-02T15:27:46.777Z,44.70
2023-04-02T15:29:48.325Z,44.50
2023-04-02T15:31:53.656Z,44.70
2023-04-02T15:34:17.196Z,44.70
2023-04-02T15:36:18.842Z,44.80
2023-04-02T15:38:26.407Z,44.80
2023-04-02T15:40:55.645Z,45.10
2023-04-02T15:43:19.014Z,45.70
2023-04-02T15:45:29.110Z,45.10
2023-04-02T15:47:36.883Z,45.10
2023-04-02T15:50:06.530Z,45.00
2023-04-02T15:52:38.191Z,45.00
2023-04-02T15:54:45.750Z,44.90
2023-04-02T15:57:17.389Z,45.00
2023-04-02T15:59:31.286Z,44.90
2023-04-02T16:02:01.085Z,45.10
2023-04-02T16:04:19.569Z,45.30
2023-04-02T16:06:44.538Z,45.50
2023-04-02T16:09:02.656Z,45.70
2023-04-02T16:11:10.504Z,45.60
2023-04-02T16:13:24.423Z,45.80
2023-04-02T16:15:36.717Z,45.90
2023-04-02T16:17:43.680Z,45.60
2023-04-02T16:19:51.104Z,45.70
2023-04-02T16:22:11.675Z,45.60
2023-04-02T16:24:13.418Z,45.60
2023-04-02T16:26:27.063Z,45.40
2023-04-02T16:28:42.586Z,45.50
2023-04-02T16:31:05.604Z,45.50
2023-04-02T16:33:21.136Z,45.50
2023-04-02T16:37:49.419Z,45.90
2023-04-02T16:40:32.792Z,46.10
2023-04-02T16:42:43.414Z,46.30
2023-04-02T16:45:25.570Z,46.20
2023-04-02T16:47:50.245Z,46.00
2023-04-02T16:50:08.313Z,46.00
2023-04-02T16:52:49.196Z,46.10
2023-04-02T16:55:10.710Z,46.10
2023-04-02T16:57:57.557Z,46.10
2023-04-02T17:00:02.140Z,46.20
2023-04-02T17:02:45.536Z,46.20
2023-04-02T17:05:05.614Z,46.20
2023-04-02T17:07:32.514Z,46.20
2023-04-02T17:09:42.506Z,46.20
2023-04-02T17:12:09.668Z,46.60
2023-04-02T17:14:21.959Z,47.10
2023-04-02T17:16:36.678Z,47.00
2023-04-02T17:18:42.437Z,47.10
2023-04-02T17:20:44.540Z,47.10
2023-04-02T17:22:47.850Z,47.10
2023-04-02T17:24:57.671Z,47.20
2023-04-02T17:27:17.296Z,47.20
2023-04-02T17:29:24.054Z,47.20
2023-04-02T17:31:30.590Z,47.40
2023-04-02T17:33:32.332Z,47.40
2023-04-02T17:36:04.357Z,47.70
2023-04-02T17:38:19.855Z,48.30
2023-04-02T17:40:29.152Z,48.00
2023-04-02T17:42:42.667Z,47.80
2023-04-02T17:44:50.115Z,47.80
2023-04-02T17:46:57.720Z,47.80
2023-04-02T17:49:16.564Z,48.00
2023-04-02T17:51:34.111Z,48.10
2023-04-02T17:53:52.166Z,48.10
2023-04-02T17:56:33.654Z,48.30
2023-04-02T17:58:47.114Z,48.50
2023-04-02T18:01:05.899Z,48.50
2023-04-02T18:03:31.077Z,48.50
2023-04-02T18:05:38.693Z,48.60
2023-04-02T18:08:05.714Z,48.80
2023-04-02T18:10:13.443Z,48.80
2023-04-02T18:12:28.606Z,49.00
2023-04-02T18:14:59.736Z,49.00
2023-04-02T18:17:30.138Z,49.10
2023-04-02T18:19:49.892Z,49.20
2023-04-02T18:21:58.912Z,49.30
2023-04-02T18:24:32.909Z,49.40
2023-04-02T18:27:04.109Z,49.40
2023-04-02T18:29:26.841Z,49.40
2023-04-02T18:31:58.406Z,49.10
2023-04-02T18:34:15.755Z,47.40
2023-04-02T18:36:33.920Z,48.30
2023-04-02T18:38:53.860Z,48.60
2023-04-02T18:41:02.731Z,48.90
2023-04-02T18:43:19.532Z,48.70
2023-04-02T18:45:31.254Z,48.60
2023-04-02T18:47:51.796Z,48.50
2023-04-02T18:50:11.206Z,48.50
2023-04-02T18:52:15.392Z,48.50
2023-04-02T18:54:27.313Z,48.70
2023-04-02T18:56:31.585Z,49.00
2023-04-02T18:58:52.826Z,49.80
2023-04-02T19:00:55.355Z,49.50
2023-04-02T19:03:02.936Z,49.70
2023-04-02T19:05:15.042Z,49.60
2023-04-02T19:07:20.003Z,49.60
2023-04-02T19:09:32.625Z,49.50
2023-04-02T19:11:34.448Z,49.50
2023-04-02T19:13:36.255Z,49.70
2023-04-02T19:15:54.444Z,49.60
2023-04-02T19:18:05.470Z,49.60
2023-04-02T19:20:13.253Z,49.70
2023-04-02T19:22:29.994Z,49.70
2023-04-02T19:24:41.328Z,49.70
2023-04-02T19:27:12.456Z,49.70
2023-04-02T19:29:22.921Z,49.80
2023-04-02T19:31:39.503Z,49.80
2023-04-02T19:33:55.265Z,49.80
2023-04-02T19:36:14.108Z,49.70
2023-04-02T19:38:53.186Z,49.70
2023-04-02T19:41:08.274Z,49.70
2023-04-02T19:43:11.226Z,49.60
2023-04-02T19:45:21.168Z,49.60
2023-04-02T19:47:24.478Z,49.60
2023-04-02T19:49:34.714Z,49.60
2023-04-02T19:51:36.496Z,49.60
2023-04-02T19:53:38.306Z,49.50
2023-04-02T19:55:41.719Z,49.60
2023-04-02T19:57:43.403Z,49.60
2023-04-02T19:59:45.113Z,49.50
2023-04-02T20:01:47.197Z,49.50
2023-04-02T20:03:48.945Z,49.60
2023-04-02T20:05:51.048Z,49.40
2023-04-02T20:07:52.692Z,49.40
2023-04-02T20:09:54.429Z,49.40
2023-04-02T20:11:56.175Z,49.40
2023-04-02T20:13:57.895Z,49.40
2023-04-02T20:16:04.038Z,49.30
2023-04-02T20:18:06.019Z,49.30
2023-04-02T20:20:08.909Z,49.20
2023-04-02T20:22:10.613Z,49.20
2023-04-02T20:24:12.332Z,49.10
2023-04-02T20:26:13.952Z,49.70
2023-04-02T20:28:15.705Z,49.10
2023-04-02T20:30:17.612Z,49.00
2023-04-02T20:32:19.272Z,49.00
2023-04-02T20:34:21.158Z,49.00
2023-04-02T20:36:24.665Z,49.60
2023-04-02T20:38:27.448Z,48.90
2023-04-02T20:40:29.110Z,48.80
2023-04-02T20:42:31.179Z,48.80
2023-04-02T20:44:32.878Z,48.80
2023-04-02T20:46:34.599Z,48.70
2023-04-02T20:48:37.513Z,48.70
2023-04-02T20:50:39.291Z,48.70
2023-04-02T20:52:41.235Z,48.60
2023-04-02T20:54:42.857Z,48.60
2023-04-02T20:56:44.748Z,48.50
2023-04-02T20:58:46.619Z,48.50
2023-04-02T21:00:48.222Z,48.60
2023-04-02T21:02:49.940Z,48.60
2023-04-02T21:04:51.676Z,48.60
2023-04-02T21:06:56.855Z,48.60
2023-04-02T21:08:58.802Z,48.70
2023-04-02T21:11:06.968Z,48.70
2023-04-02T21:13:08.643Z,48.70
2023-04-02T21:15:12.627Z,48.80
2023-04-02T21:17:16.030Z,48.70
2023-04-02T21:19:17.738Z,48.70
2023-04-02T21:21:20.916Z,48.80
2023-04-02T21:23:22.585Z,48.70
2023-04-02T21:25:24.209Z,48.80
2023-04-02T21:27:26.084Z,48.80
2023-04-02T21:29:27.775Z,48.80
2023-04-02T21:31:32.946Z,48.80
2023-04-02T21:33:39.879Z,48.80
2023-04-02T21:35:41.828Z,48.80
2023-04-02T21:37:44.309Z,48.90
2023-04-02T21:39:47.100Z,48.80
2023-04-02T21:41:50.889Z,48.80
2023-04-02T21:43:53.859Z,48.80
2023-04-02T21:45:58.839Z,48.80
2023-04-02T21:48:00.689Z,48.90
2023-04-02T21:50:02.441Z,48.90
2023-04-02T21:52:04.144Z,48.90
2023-04-02T21:54:06.418Z,49.00
2023-04-02T21:56:12.865Z,48.90
2023-04-02T21:58:14.620Z,48.90
2023-04-02T22:00:16.546Z,48.90
2023-04-02T22:02:18.138Z,49.00
2023-04-02T22:04:24.801Z,49.00
2023-04-02T22:06:28.596Z,49.00
2023-04-02T22:08:30.574Z,48.90
2023-04-02T22:10:32.233Z,48.90
2023-04-02T22:12:33.870Z,48.90
2023-04-02T22:14:35.490Z,48.90
2023-04-02T22:16:38.110Z,49.00
2023-04-02T22:18:40.808Z,49.00
2023-04-02T22:20:42.483Z,48.90
2023-04-02T22:22:44.214Z,49.00
2023-04-02T22:24:46.312Z,49.00
2023-04-02T22:26:48.438Z,49.00
2023-04-02T22:28:52.319Z,49.00
2023-04-02T22:30:55.013Z,49.00
2023-04-02T22:32:56.712Z,49.00
2023-04-02T22:34:58.358Z,49.60
2023-04-02T22:36:59.983Z,49.00
2023-04-02T22:39:05.344Z,49.00
2023-04-02T22:41:28.753Z,49.10
2023-04-02T22:43:30.491Z,49.00
2023-04-02T22:45:32.131Z,49.10
2023-04-02T22:47:33.837Z,49.00
2023-04-02T22:49:35.567Z,49.00
2023-04-02T22:51:37.222Z,49.00
2023-04-02T22:53:39.344Z,49.10
2023-04-02T22:55:40.969Z,49.00
2023-04-02T22:57:43.032Z,49.10
2023-04-02T22:59:44.657Z,49.00
2023-04-02T23:01:46.412Z,49.00
2023-04-02T23:03:49.036Z,49.00
2023-04-02T23:06:01.449Z,49.00
2023-04-02T23:08:04.102Z,49.00
2023-04-02T23:10:06.380Z,49.10
2023-04-02T23:12:08.070Z,49.00
2023-04-02T23:14:09.794Z,49.00
2023-04-02T23:16:13.471Z,49.10
2023-04-02T23:18:15.217Z,49.00
2023-04-02T23:20:16.840Z,49.00
2023-04-02T23:22:18.543Z,49.00
2023-04-02T23:24:20.261Z,49.00
2023-04-02T23:26:27.044Z,49.00
2023-04-02T23:28:28.713Z,49.00
2023-04-02T23:30:30.540Z,48.90
2023-04-02T23:32:32.187Z,49.00
2023-04-02T23:34:34.040Z,49.00
2023-04-02T23:36:35.957Z,48.90
2023-04-02T23:38:37.573Z,48.90
2023-04-02T23:40:39.181Z,48.90
2023-04-02T23:42:40.982Z,49.00
2023-04-02T23:44:42.639Z,48.90
2023-04-02T23:46:44.300Z,49.00
2023-04-02T23:48:46.718Z,49.00
2023-04-02T23:50:48.421Z,48.90
2023-04-02T23:52:50.206Z,48.90
2023-04-02T23:54:51.979Z,48.90
2023-04-02T23:56:53.655Z,48.90
2023-04-02T23:58:55.329Z,48.90
